Saint Louis, MO (63136)

8:54 PM CDT on August 31, 2016 (GMT -0500)
Roland Boulevard | | Change Station

Elev 656 ft 38.71 °N, 90.29 °W | Updated 2 minutes ago

Mostly Cloudy
Mostly Cloudy
72.3 °F
Feels Like 72.3 °F
N
1.2
Wind Variable Wind from North
Gusts 3.1 mph

Today
High -- | Low -- °F
--% Chance of Precip.
Yesterday
High -- | Low -- °F
Precip. -- in
Pressure 30.01 in
Visibility 10.0 miles
Clouds Scattered Clouds 4500 ft
Mostly Cloudy 25000 ft
Dew Point 71 °F
Humidity 96%
Rainfall 0.04 in
Snow Depth Not available.
6:29 AM 7:31 PM
Waning Crescent, 0% visible
METAR KSTL 010151Z 31005KT 10SM SCT045 BKN250 24/19 A3004 RMK AO2 SLP162 T02390189
Pressure 30.01 in
Visibility 10.0 miles
Clouds Scattered Clouds 4500 ft
Mostly Cloudy 25000 ft
Dew Point 71 °F
Humidity 96%
Rainfall 0.04 in
Snow Depth Not available.
6:29 AM 7:31 PM
Waning Crescent, 0% visible
METAR KSTL 010151Z 31005KT 10SM SCT045 BKN250 24/19 A3004 RMK AO2 SLP162 T02390189

10-Day Weather Forecast

Almanac

Astronomy

Aug. 31, 2016 Rise Set
Actual Time
Civil Twilight
Nautical Twilight
Astronomical Twilight
Moon
Length of Visible Light
Length of Day
Tomorrow will be .
, % of the Moon is Illuminated

Today's Extremes

State Highs State Lows

Community

WunderPhotos

Upload Photos

1,936,266 photos uploaded!

WunderBlog® & News

Nearby

Air Quality

  Air Quality AQ Index Pollutant
Not available.

Snow Depth

Station Depth Elevation

Earthquake Activity

City Distance Mag. Time & Date
Minimum magnitude displayed is 2.5.

Coastal Water Temperatures

Place Temperature

Stations

Nearby Weather Stations

Station Location Temp. Windchill Dew Point Humidity Wind Precip. Elev Updated Type
                   

Watches & Warnings

There are currently no watches in effect.